Portada
METAR-TAF:

METAR-TAF

Aeropuertos :

Claremore, Oklahoma, Estados Unidos

latitud: 36-17-40N, longitud: 095-28-47W, altitud: 221 m

Observación

El informe se hizo hace 14 minutos, a las 08:35 UTC
Viento calma
Temperatura 24°C
Humedad 69%
Presión 1015 hPa
Visibilidad: 16.1 km
Cielo nuboso a una altura de 5500 ft

METAR: KGCM 060835Z AUTO 00000KT 10SM BKN055 24/18 A2997 RMK AO2

Hora: 03:49 (08:49 UTC)


TAF: falta

Observaciones y pronósticos meteorológicos de más de 4000 aeropuertos (mensajes METAR y TAF).

Los puntos amarillos y rojos representan las estaciones disponibles.

Ponga el ratón en el punto deseado para ver el nombre de la estación.

Haga clic para ver las observaciones y los pronósticos meteorológicos.

Para cambiar el mapa : haga clic en los botones verdes con una cruz de color negro para hacer un zoom, en el botón verde con un guión para alejar o en las flechas verdes para mapas adyacentes.


METAR-TAF: